createdAt,value
2019-01-24T00:02:22.436Z,30.43
2019-01-24T00:09:16.402Z,30.63
2019-01-24T00:11:47.501Z,29.20
2019-01-24T00:18:06.394Z,29.50
2019-01-24T00:20:38.373Z,30.73
2019-01-24T00:23:09.228Z,30.00
2019-01-24T00:25:40.050Z,31.37
2019-01-24T00:28:10.841Z,30.57
2019-01-24T00:30:41.989Z,31.87
2019-01-24T00:33:13.014Z,30.47
2019-01-24T00:35:44.080Z,30.40
2019-01-24T00:38:15.333Z,29.90
2019-01-24T00:40:46.105Z,30.37
2019-01-24T00:43:17.196Z,33.47
2019-01-24T00:45:47.979Z,30.43
2019-01-24T00:48:19.336Z,32.17
2019-01-24T00:50:50.396Z,30.57
2019-01-24T00:53:21.247Z,31.23
2019-01-24T00:55:52.020Z,31.07
2019-01-24T00:58:23.348Z,31.60
2019-01-24T01:00:54.353Z,31.73
2019-01-24T01:03:25.155Z,32.57
2019-01-24T01:05:56.067Z,31.77
2019-01-24T01:08:27.815Z,31.90
2019-01-24T01:10:58.666Z,31.23
2019-01-24T01:13:29.753Z,30.97
2019-01-24T01:16:00.522Z,31.20
2019-01-24T01:18:31.308Z,30.77
2019-01-24T01:21:02.149Z,30.17
2019-01-24T01:23:33.165Z,29.77
2019-01-24T01:26:04.085Z,30.97
2019-01-24T01:28:35.445Z,31.07
2019-01-24T01:31:06.767Z,31.33
2019-01-24T01:33:38.717Z,31.37
2019-01-24T01:36:09.821Z,30.57
2019-01-24T01:38:40.612Z,30.93
2019-01-24T01:41:11.574Z,30.37
2019-01-24T01:43:42.367Z,32.03
2019-01-24T01:46:13.468Z,31.53
2019-01-24T01:48:44.415Z,31.77
2019-01-24T01:51:15.535Z,32.60
2019-01-24T01:53:48.129Z,32.57
2019-01-24T01:56:19.171Z,31.67
2019-01-24T01:58:50.526Z,30.67
2019-01-24T02:01:21.304Z,30.83
2019-01-24T02:03:52.633Z,30.77
2019-01-24T02:06:23.708Z,30.27
2019-01-24T02:08:54.515Z,31.77
2019-01-24T02:11:25.669Z,31.40
2019-01-24T02:13:56.787Z,31.30
2019-01-24T02:16:27.716Z,31.10
2019-01-24T02:18:58.580Z,30.30
2019-01-24T02:21:30.227Z,30.87
2019-01-24T02:24:01.329Z,30.53
2019-01-24T02:26:32.095Z,31.03
2019-01-24T02:29:03.122Z,31.60
2019-01-24T02:31:37.100Z,32.27
2019-01-24T02:34:07.962Z,30.50
2019-01-24T02:36:38.750Z,32.27
2019-01-24T02:39:09.846Z,31.03
2019-01-24T02:41:40.650Z,31.77
2019-01-24T02:44:11.465Z,31.93
2019-01-24T02:46:42.761Z,32.67
2019-01-24T02:49:13.547Z,31.77
2019-01-24T02:51:44.409Z,32.40
2019-01-24T02:54:15.234Z,32.13
2019-01-24T02:56:46.568Z,30.67
2019-01-24T02:59:17.369Z,31.27
2019-01-24T03:01:48.681Z,31.27
2019-01-24T03:04:19.770Z,31.43
2019-01-24T03:06:50.780Z,31.37
2019-01-24T03:09:22.031Z,32.10
2019-01-24T03:11:53.966Z,30.77
2019-01-24T03:14:24.999Z,31.50
2019-01-24T03:16:55.840Z,30.90
2019-01-24T03:19:26.868Z,30.73
2019-01-24T03:21:57.877Z,31.90
2019-01-24T03:24:29.021Z,31.57
2019-01-24T03:27:00.096Z,31.90
2019-01-24T03:29:31.126Z,30.23
2019-01-24T03:32:02.176Z,32.20
2019-01-24T03:34:33.280Z,32.13
2019-01-24T03:37:04.423Z,31.53
2019-01-24T03:39:35.447Z,30.80
2019-01-24T03:42:06.478Z,32.37
2019-01-24T03:44:38.022Z,31.70
2019-01-24T03:47:09.178Z,30.20
2019-01-24T03:49:40.525Z,31.50
2019-01-24T03:52:11.340Z,31.37
2019-01-24T03:54:42.458Z,31.50
2019-01-24T03:57:13.537Z,31.93
2019-01-24T03:59:44.406Z,30.83
2019-01-24T04:02:15.345Z,30.30
2019-01-24T04:04:46.835Z,31.13
2019-01-24T04:07:18.592Z,30.93
2019-01-24T04:09:49.441Z,30.03
2019-01-24T04:12:20.330Z,30.93
2019-01-24T04:14:51.187Z,32.60
2019-01-24T04:17:22.212Z,31.17
2019-01-24T04:19:53.298Z,31.30
2019-01-24T04:22:24.557Z,32.17
2019-01-24T04:24:55.584Z,30.67
2019-01-24T04:27:26.596Z,30.30
2019-01-24T04:29:57.763Z,32.50
2019-01-24T04:32:28.531Z,31.33
2019-01-24T04:34:59.330Z,30.93
2019-01-24T04:37:30.341Z,30.93
2019-01-24T04:40:01.402Z,31.47
2019-01-24T04:42:32.170Z,29.93
2019-01-24T04:45:02.961Z,31.60
2019-01-24T04:47:33.969Z,29.30
2019-01-24T04:50:05.486Z,29.20
2019-01-24T04:52:36.334Z,28.30
2019-01-24T04:55:08.663Z,28.53
2019-01-24T04:57:39.747Z,29.47
2019-01-24T05:00:14.190Z,29.37
2019-01-24T05:02:45.046Z,28.97
2019-01-24T05:05:16.143Z,29.83
2019-01-24T05:07:47.087Z,29.07
2019-01-24T05:10:18.124Z,29.40
2019-01-24T05:12:49.373Z,29.13
2019-01-24T05:15:20.431Z,28.07
2019-01-24T05:17:51.444Z,29.93
2019-01-24T05:20:22.303Z,29.80
2019-01-24T05:22:53.166Z,28.23
2019-01-24T05:25:24.272Z,28.70
2019-01-24T05:27:55.340Z,29.70
2019-01-24T05:30:27.745Z,30.97
2019-01-24T05:32:59.894Z,30.77
2019-01-24T05:35:34.874Z,32.10
2019-01-24T05:38:03.656Z,31.87
2019-01-24T05:40:34.759Z,31.03
2019-01-24T05:43:05.851Z,31.30
2019-01-24T05:45:36.635Z,30.53
2019-01-24T05:48:07.427Z,31.87
2019-01-24T05:50:38.232Z,30.70
2019-01-24T05:53:09.050Z,30.50
2019-01-24T05:55:40.022Z,29.73
2019-01-24T05:58:11.277Z,32.03
2019-01-24T06:00:44.722Z,31.60
2019-01-24T06:03:15.730Z,32.17
2019-01-24T06:05:47.067Z,32.87
2019-01-24T06:08:18.048Z,34.90
2019-01-24T06:10:49.956Z,32.90
2019-01-24T06:13:21.011Z,32.80
2019-01-24T06:15:52.048Z,33.10
2019-01-24T06:18:23.364Z,34.10
2019-01-24T06:20:54.321Z,33.13
2019-01-24T06:23:25.411Z,33.60
2019-01-24T06:25:56.270Z,32.60
2019-01-24T06:28:27.045Z,32.60
2019-01-24T06:30:57.984Z,32.63
2019-01-24T06:33:28.985Z,31.57
2019-01-24T06:36:00.231Z,32.97
2019-01-24T06:38:31.299Z,31.70
2019-01-24T06:41:02.103Z,33.50
2019-01-24T06:43:32.880Z,31.47
2019-01-24T06:46:03.830Z,31.40
2019-01-24T06:48:35.210Z,32.77
2019-01-24T06:51:06.173Z,32.70
2019-01-24T06:53:37.096Z,32.67
2019-01-24T06:56:08.335Z,33.27
2019-01-24T06:58:39.191Z,32.90
2019-01-24T07:01:09.998Z,33.80
2019-01-24T07:03:40.867Z,33.17
2019-01-24T07:06:11.772Z,33.60
2019-01-24T07:08:42.877Z,33.47
2019-01-24T07:11:13.791Z,33.77
2019-01-24T07:13:45.381Z,31.83
2019-01-24T07:16:16.383Z,35.03
2019-01-24T07:18:47.241Z,33.10
2019-01-24T07:21:18.024Z,32.50
2019-01-24T07:23:49.064Z,32.70
2019-01-24T07:26:20.242Z,32.53
2019-01-24T07:28:51.142Z,34.20
2019-01-24T07:31:22.040Z,33.13
2019-01-24T07:33:53.337Z,33.83
2019-01-24T07:36:24.403Z,33.30
2019-01-24T07:38:55.217Z,34.30
2019-01-24T07:41:26.048Z,33.77
2019-01-24T07:43:57.219Z,35.20
2019-01-24T07:46:29.281Z,35.17
2019-01-24T07:49:00.245Z,32.83
2019-01-24T07:51:31.364Z,34.27
2019-01-24T07:54:02.477Z,33.93
2019-01-24T07:56:33.245Z,33.17
2019-01-24T07:59:04.578Z,34.50
2019-01-24T08:01:35.774Z,35.23
2019-01-24T08:04:06.873Z,32.60
2019-01-24T08:06:37.651Z,32.83
2019-01-24T08:09:09.144Z,33.70
2019-01-24T08:11:39.914Z,34.97
2019-01-24T08:14:11.451Z,35.80
2019-01-24T08:16:42.299Z,33.10
2019-01-24T08:19:13.152Z,34.10
2019-01-24T08:21:43.966Z,32.97
2019-01-24T08:24:14.951Z,35.30
2019-01-24T08:26:46.016Z,33.93
2019-01-24T08:29:17.042Z,36.50
2019-01-24T08:31:48.053Z,35.30
2019-01-24T08:34:18.862Z,35.93
2019-01-24T08:36:49.902Z,35.80
2019-01-24T08:39:20.772Z,39.07
2019-01-24T08:41:51.638Z,38.73
2019-01-24T08:44:22.489Z,39.73
2019-01-24T08:46:53.345Z,40.60
2019-01-24T08:49:24.139Z,40.70
2019-01-24T08:51:55.163Z,39.70
2019-01-24T08:54:29.735Z,41.10
2019-01-24T08:56:58.981Z,42.17
2019-01-24T08:59:30.057Z,40.93
2019-01-24T09:02:01.998Z,42.33
2019-01-24T09:04:32.802Z,43.13
2019-01-24T09:07:03.848Z,43.50
2019-01-24T09:09:35.503Z,43.37
2019-01-24T09:12:06.433Z,45.23
2019-01-24T09:14:37.292Z,44.83
2019-01-24T09:17:08.553Z,44.30
2019-01-24T09:19:39.416Z,44.80
2019-01-24T09:22:10.198Z,45.77
2019-01-24T09:24:41.464Z,45.17
2019-01-24T09:27:12.228Z,45.93
2019-01-24T09:29:43.156Z,43.17
2019-01-24T09:32:14.401Z,44.40
2019-01-24T09:34:45.268Z,41.63
2019-01-24T09:37:16.134Z,42.37
2019-01-24T09:39:47.006Z,43.07
2019-01-24T09:42:18.133Z,43.67
2019-01-24T09:44:49.094Z,45.63
2019-01-24T09:47:19.969Z,44.27
2019-01-24T09:49:50.906Z,43.87
2019-01-24T09:52:22.012Z,46.43
2019-01-24T09:54:52.797Z,46.33
2019-01-24T09:57:23.716Z,45.20
2019-01-24T09:59:54.516Z,41.83
2019-01-24T10:02:25.549Z,43.30
2019-01-24T10:04:58.939Z,43.87
2019-01-24T10:07:29.957Z,43.97
2019-01-24T10:10:00.797Z,46.30
2019-01-24T10:12:31.577Z,47.53
2019-01-24T10:15:02.664Z,49.00
2019-01-24T10:17:33.848Z,50.50
2019-01-24T10:20:06.386Z,48.53
2019-01-24T10:22:37.374Z,48.50
2019-01-24T10:25:15.571Z,47.03
2019-01-24T10:27:46.487Z,47.37
2019-01-24T10:30:18.957Z,49.43
2019-01-24T10:32:49.895Z,52.63
2019-01-24T10:35:20.831Z,50.33
2019-01-24T10:37:51.788Z,50.67
2019-01-24T10:40:24.621Z,52.57
2019-01-24T10:42:55.697Z,52.80
2019-01-24T10:45:26.566Z,48.87
2019-01-24T10:47:57.665Z,50.07
2019-01-24T10:50:28.972Z,50.77
2019-01-24T10:52:59.824Z,51.30
2019-01-24T10:55:31.112Z,50.70
2019-01-24T10:58:02.896Z,49.90
2019-01-24T11:00:36.510Z,51.37
2019-01-24T11:03:09.501Z,52.10
2019-01-24T11:05:40.361Z,50.20
2019-01-24T11:08:11.477Z,51.93
2019-01-24T11:10:42.661Z,54.07
2019-01-24T11:13:13.593Z,50.53
2019-01-24T11:15:44.466Z,52.47
2019-01-24T11:18:15.319Z,51.57
2019-01-24T11:20:46.259Z,53.57
2019-01-24T11:23:17.075Z,52.20
2019-01-24T11:25:48.023Z,49.97
2019-01-24T11:28:18.950Z,51.67
2019-01-24T11:30:49.993Z,51.93
2019-01-24T11:33:21.018Z,52.77
2019-01-24T11:35:51.898Z,49.93
2019-01-24T11:38:23.149Z,52.53
2019-01-24T11:40:53.921Z,50.77
2019-01-24T11:43:24.769Z,51.40
2019-01-24T11:45:55.588Z,51.83
2019-01-24T11:48:26.369Z,50.73
2019-01-24T11:50:57.388Z,49.90
2019-01-24T11:53:28.161Z,47.83
2019-01-24T11:55:59.184Z,49.50
2019-01-24T11:58:29.963Z,50.83
2019-01-24T12:01:01.031Z,48.97
2019-01-24T12:03:32.108Z,50.50
2019-01-24T12:06:03.277Z,50.93
2019-01-24T12:08:34.291Z,50.10
2019-01-24T12:11:05.682Z,49.80
2019-01-24T12:13:36.937Z,49.33
2019-01-24T12:16:07.737Z,46.37
2019-01-24T12:18:38.537Z,50.70
2019-01-24T12:21:09.324Z,48.67
2019-01-24T12:23:40.305Z,50.60
2019-01-24T12:26:11.414Z,50.27
2019-01-24T12:28:42.416Z,48.60
2019-01-24T12:31:13.197Z,47.90
2019-01-24T12:33:43.972Z,47.40
2019-01-24T12:36:15.352Z,50.07
2019-01-24T12:38:46.106Z,48.87
2019-01-24T12:41:17.270Z,49.73
2019-01-24T12:43:48.154Z,48.33
2019-01-24T12:46:18.930Z,48.07
2019-01-24T12:48:50.037Z,49.03
2019-01-24T12:51:20.812Z,49.70
2019-01-24T12:53:51.604Z,47.13
2019-01-24T12:56:22.449Z,48.00
2019-01-24T12:58:53.414Z,46.90
2019-01-24T13:01:24.195Z,47.70
2019-01-24T13:03:54.997Z,46.60
2019-01-24T13:06:26.191Z,47.63
2019-01-24T13:08:57.033Z,46.03
2019-01-24T13:11:27.881Z,48.33
2019-01-24T13:13:58.680Z,46.33
2019-01-24T13:16:29.753Z,44.83
2019-01-24T13:19:00.616Z,45.90
2019-01-24T13:21:31.389Z,45.67
2019-01-24T13:24:02.185Z,45.17
2019-01-24T13:26:33.197Z,44.10
2019-01-24T13:29:07.237Z,45.87
2019-01-24T13:31:38.097Z,43.37
2019-01-24T13:34:09.254Z,41.10
2019-01-24T13:36:40.128Z,43.20
2019-01-24T13:39:11.605Z,43.27
2019-01-24T13:41:42.822Z,42.37
2019-01-24T13:44:13.653Z,42.07
2019-01-24T13:46:44.478Z,42.30
2019-01-24T13:49:15.563Z,39.33
2019-01-24T13:51:46.585Z,39.33
2019-01-24T13:54:17.407Z,39.97
2019-01-24T13:56:48.460Z,41.00
2019-01-24T13:59:19.297Z,41.03
2019-01-24T14:01:50.521Z,41.33
2019-01-24T14:04:25.776Z,40.40
2019-01-24T14:06:56.546Z,42.13
2019-01-24T14:09:27.563Z,41.10
2019-01-24T14:11:58.565Z,39.83
2019-01-24T14:14:29.639Z,40.57
2019-01-24T14:17:00.411Z,36.80
2019-01-24T14:19:31.563Z,39.53
2019-01-24T14:22:02.633Z,37.53
2019-01-24T14:24:34.700Z,37.80
2019-01-24T14:27:05.626Z,35.03
2019-01-24T14:29:36.503Z,36.23
2019-01-24T14:32:07.780Z,38.27
2019-01-24T14:34:39.623Z,37.60
2019-01-24T14:37:10.589Z,38.60
2019-01-24T14:39:41.948Z,39.23
2019-01-24T14:42:12.794Z,38.37
2019-01-24T14:44:43.893Z,38.03
2019-01-24T14:47:14.668Z,38.30
2019-01-24T14:49:45.736Z,39.37
2019-01-24T14:52:16.509Z,39.30
2019-01-24T14:54:47.607Z,39.53
2019-01-24T14:57:18.385Z,39.17
2019-01-24T14:59:49.321Z,39.80
2019-01-24T15:02:20.388Z,40.90
2019-01-24T15:04:51.404Z,42.17
2019-01-24T15:07:22.248Z,39.27
2019-01-24T15:09:53.349Z,39.53
2019-01-24T15:12:24.125Z,40.00
2019-01-24T15:14:55.156Z,39.23
2019-01-24T15:17:26.084Z,39.30
2019-01-24T15:19:56.865Z,39.60
2019-01-24T15:22:27.734Z,39.90
2019-01-24T15:24:58.883Z,49.13
2019-01-24T15:27:29.649Z,39.73
2019-01-24T15:30:00.667Z,38.20
2019-01-24T15:32:31.504Z,38.37
2019-01-24T15:35:02.493Z,39.63
2019-01-24T15:37:33.435Z,42.47
2019-01-24T15:40:06.881Z,39.47
2019-01-24T15:42:37.901Z,39.00
2019-01-24T15:45:10.153Z,38.47
2019-01-24T15:47:40.926Z,37.70
2019-01-24T15:50:13.275Z,37.50
2019-01-24T15:52:44.362Z,37.30
2019-01-24T15:55:15.446Z,36.73
2019-01-24T15:57:46.427Z,37.20
2019-01-24T16:00:20.559Z,37.27
2019-01-24T16:02:51.488Z,38.43
2019-01-24T16:05:22.427Z,38.33
2019-01-24T16:07:53.547Z,36.77
2019-01-24T16:10:24.678Z,34.73
2019-01-24T16:12:55.832Z,35.73
2019-01-24T16:15:31.520Z,34.77
2019-01-24T16:18:02.446Z,34.20
2019-01-24T16:20:33.315Z,35.03
2019-01-24T16:23:04.160Z,34.57
2019-01-24T16:25:35.293Z,35.83
2019-01-24T16:28:06.248Z,32.83
2019-01-24T16:30:37.789Z,32.83
2019-01-24T16:33:09.143Z,33.30
2019-01-24T16:35:40.288Z,34.00
2019-01-24T16:38:11.218Z,33.87
2019-01-24T16:40:42.096Z,33.73
2019-01-24T16:43:12.876Z,33.70
2019-01-24T16:45:43.733Z,35.00
2019-01-24T16:48:14.620Z,35.50
2019-01-24T16:50:45.636Z,34.67
2019-01-24T16:53:16.485Z,35.57
2019-01-24T16:55:48.315Z,34.13
2019-01-24T16:58:19.464Z,35.07
2019-01-24T17:01:18.088Z,33.47
2019-01-24T17:03:48.870Z,35.73
2019-01-24T17:06:19.966Z,33.90
2019-01-24T17:08:53.060Z,33.50
2019-01-24T17:11:24.104Z,35.30
2019-01-24T17:13:54.874Z,33.87
2019-01-24T17:16:25.875Z,33.60
2019-01-24T17:18:56.873Z,33.97
2019-01-24T17:21:28.095Z,34.33
2019-01-24T17:23:58.984Z,34.37
2019-01-24T17:26:29.870Z,32.33
2019-01-24T17:29:00.880Z,35.73
2019-01-24T17:31:31.969Z,33.60
2019-01-24T17:34:03.092Z,33.63
2019-01-24T17:36:33.974Z,33.80
2019-01-24T17:39:08.735Z,36.07
2019-01-24T17:41:40.479Z,37.30
2019-01-24T17:44:11.571Z,33.83
2019-01-24T17:46:42.441Z,35.47
2019-01-24T17:49:13.208Z,36.97
2019-01-24T17:51:44.073Z,35.50
2019-01-24T17:54:15.137Z,36.07
2019-01-24T17:56:46.226Z,35.33
2019-01-24T17:59:17.310Z,36.00
2019-01-24T18:01:48.404Z,37.97
2019-01-24T18:04:21.819Z,39.50
2019-01-24T18:06:51.752Z,39.20
2019-01-24T18:09:22.536Z,41.43
2019-01-24T18:11:53.338Z,42.63
2019-01-24T18:14:24.326Z,42.90
2019-01-24T18:16:55.118Z,40.30
2019-01-24T18:19:26.135Z,38.90
2019-01-24T18:21:57.261Z,38.97
2019-01-24T18:24:28.038Z,37.30
2019-01-24T18:26:59.002Z,37.73
2019-01-24T18:29:30.089Z,37.93
2019-01-24T18:32:01.379Z,36.63
2019-01-24T18:34:32.448Z,38.07
2019-01-24T18:37:03.251Z,38.07
2019-01-24T18:39:34.171Z,40.20
2019-01-24T18:42:05.110Z,39.13
2019-01-24T18:44:36.064Z,39.43
2019-01-24T18:47:07.153Z,38.17
2019-01-24T18:49:37.934Z,39.20
2019-01-24T18:52:09.032Z,39.47
2019-01-24T18:54:39.849Z,38.00
2019-01-24T18:57:10.644Z,39.23
2019-01-24T18:59:42.711Z,39.77
2019-01-24T19:02:13.765Z,40.03
2019-01-24T19:04:44.686Z,39.33
2019-01-24T19:07:15.514Z,37.93
2019-01-24T19:09:46.357Z,38.20
2019-01-24T19:12:17.585Z,38.13
2019-01-24T19:14:48.929Z,38.53
2019-01-24T19:17:20.104Z,39.53
2019-01-24T19:19:51.760Z,38.80
2019-01-24T19:22:22.773Z,39.47
2019-01-24T19:24:53.602Z,38.20
2019-01-24T19:27:24.701Z,38.47
2019-01-24T19:29:55.554Z,39.57
2019-01-24T19:32:26.420Z,39.43
2019-01-24T19:34:57.339Z,38.80
2019-01-24T19:37:28.328Z,39.07
2019-01-24T19:39:59.287Z,39.57
2019-01-24T19:42:30.081Z,39.27
2019-01-24T19:45:01.378Z,37.67
2019-01-24T19:47:32.457Z,39.03
2019-01-24T19:50:03.545Z,38.47
2019-01-24T19:52:34.384Z,38.63
2019-01-24T19:55:06.149Z,39.27
2019-01-24T19:57:37.357Z,39.53
2019-01-24T20:00:12.320Z,38.77
2019-01-24T20:02:43.405Z,39.93
2019-01-24T20:05:15.097Z,39.47
2019-01-24T20:07:46.653Z,39.57
2019-01-24T20:10:19.088Z,39.97
2019-01-24T20:12:50.003Z,40.67
2019-01-24T20:15:22.693Z,40.77
2019-01-24T20:17:53.934Z,40.37
2019-01-24T20:20:25.180Z,40.03
2019-01-24T20:22:56.238Z,40.67
2019-01-24T20:25:28.592Z,40.00
2019-01-24T20:27:59.443Z,40.97
2019-01-24T20:30:31.621Z,40.20
2019-01-24T20:33:02.832Z,40.00
2019-01-24T20:35:42.772Z,39.67
2019-01-24T20:38:13.715Z,40.27
2019-01-24T20:40:44.596Z,41.80
2019-01-24T20:43:16.153Z,41.83
2019-01-24T20:45:47.013Z,41.60
2019-01-24T20:48:18.118Z,40.80
2019-01-24T20:50:49.123Z,42.33
2019-01-24T20:53:19.989Z,42.00
2019-01-24T20:55:51.030Z,42.17
2019-01-24T20:58:22.074Z,41.33
2019-01-24T21:00:53.087Z,41.60
2019-01-24T21:03:24.259Z,40.07
2019-01-24T21:05:55.358Z,39.90
2019-01-24T21:08:26.605Z,40.30
2019-01-24T21:10:57.516Z,42.13
2019-01-24T21:13:28.302Z,42.13
2019-01-24T21:15:59.147Z,43.07
2019-01-24T21:18:30.046Z,42.07
2019-01-24T21:21:00.918Z,40.10
2019-01-24T21:23:31.953Z,40.30
2019-01-24T21:26:02.958Z,40.70
2019-01-24T21:28:33.744Z,39.93
2019-01-24T21:31:04.713Z,37.60
2019-01-24T21:33:35.977Z,37.67
2019-01-24T21:36:06.902Z,39.90
2019-01-24T21:38:37.757Z,41.20
2019-01-24T21:41:08.545Z,38.07
2019-01-24T21:43:39.586Z,38.83
2019-01-24T21:46:10.462Z,37.30
2019-01-24T21:48:41.552Z,40.07
2019-01-24T21:51:12.405Z,41.03
2019-01-24T21:53:43.405Z,44.23
2019-01-24T21:56:14.270Z,44.23
2019-01-24T21:58:45.325Z,43.13
2019-01-24T22:01:16.100Z,41.50
2019-01-24T22:03:47.126Z,40.67
2019-01-24T22:06:18.058Z,40.70
2019-01-24T22:08:48.867Z,39.63
2019-01-24T22:11:19.759Z,38.97
2019-01-24T22:13:50.815Z,39.50
2019-01-24T22:16:21.738Z,39.87
2019-01-24T22:18:53.026Z,40.00
2019-01-24T22:21:23.795Z,39.50
2019-01-24T22:23:54.593Z,39.87
2019-01-24T22:26:25.444Z,40.13
2019-01-24T22:28:56.786Z,39.33
2019-01-24T22:31:27.640Z,39.67
2019-01-24T22:33:58.497Z,38.83
2019-01-24T22:36:29.278Z,38.60
2019-01-24T22:39:00.146Z,39.47
2019-01-24T22:41:31.040Z,39.60
2019-01-24T22:44:01.845Z,38.97
2019-01-24T22:46:33.588Z,38.17
2019-01-24T22:49:04.465Z,41.63
2019-01-24T22:51:35.242Z,40.70
2019-01-24T22:54:06.481Z,42.50
2019-01-24T22:56:37.834Z,46.20
2019-01-24T22:59:08.962Z,49.20
2019-01-24T23:01:44.640Z,46.23
2019-01-24T23:04:18.169Z,42.27
2019-01-24T23:06:49.491Z,41.17
2019-01-24T23:09:22.183Z,41.03
2019-01-24T23:11:53.077Z,41.13
2019-01-24T23:14:23.941Z,43.27
2019-01-24T23:16:54.789Z,43.50
2019-01-24T23:19:25.834Z,43.27
2019-01-24T23:21:56.681Z,43.63
2019-01-24T23:24:27.480Z,42.20
2019-01-24T23:26:58.408Z,42.80
2019-01-24T23:29:29.282Z,42.87
2019-01-24T23:32:00.130Z,43.90
2019-01-24T23:34:30.998Z,43.67
2019-01-24T23:37:04.912Z,42.60
2019-01-24T23:39:36.303Z,44.70
2019-01-24T23:42:07.227Z,44.80
2019-01-24T23:44:38.157Z,45.20
2019-01-24T23:47:09.244Z,43.40
2019-01-24T23:49:40.036Z,44.80
2019-01-24T23:52:10.979Z,45.33
2019-01-24T23:54:42.059Z,44.30
2019-01-24T23:57:12.832Z,43.50
2019-01-24T23:59:43.877Z,44.57
